Rio Cuarto, Argentina

11:28 PM ART on July 28, 2016 (GMT -0300)
Area De Material | | Change Station

Elev 1381 ft 33.12 °S, 64.23 °W | Updated 28 minutes ago

Overcast
Overcast
46 °F
Feels Like 40 °F
N
14
Wind Variable Wind from North

Today
High -- | Low -- °F
--% Chance of Precip.
Yesterday
High -- | Low -- °F
Precip. -- in
Pressure 30.15 in
Visibility 6.2 miles
Clouds Overcast 2000 ft
Windchill 40 °F
Dew Point 43 °F
Humidity 87%
Rainfall 0.00 in
Snow Depth Not available.
8:10 AM 6:36 PM
Waning Crescent, 26% visible
METAR SAOC 290200Z 36012KT 9999 OVC020 08/06 Q1021
Pressure 30.15 in
Visibility 6.2 miles
Clouds Overcast 2000 ft
Windchill 40 °F
Dew Point 43 °F
Humidity 87%
Rainfall 0.00 in
Snow Depth Not available.
8:10 AM 6:36 PM
Waning Crescent, 26% visible
METAR SAOC 290200Z 36012KT 9999 OVC020 08/06 Q1021

10-Day Weather Forecast

No radar image for this location.
×

Almanac

Astronomy

Jul. 28, 2016 Rise Set
Actual Time
Civil Twilight
Nautical Twilight
Astronomical Twilight
Moon
Length of Visible Light
Length of Day
Tomorrow will be .
, % of the Moon is Illuminated

Today's Extremes

Country Highs Country Lows

Community

WunderPhotos

Upload Photos

1,928,273 photos uploaded!

WunderBlog® & News

Nearby

Air Quality

  Air Quality AQ Index Pollutant
Not available.

Snow Depth

Station Depth Elevation

Earthquake Activity

City Distance Mag. Time & Date
Minimum magnitude displayed is 2.5.

Coastal Water Temperatures

Place Temperature

Stations

Nearby Weather Stations

Station Location Temp. Windchill Dew Point Humidity Wind Precip. Elev Updated Type